Pindi Bhattian Weather



Pindi Bhattian's Current Weather

Temprature 24.186o clear sky

clear sky

Rain: 0 %

Min Temprature24.186o
Max Temprature24.186o
Humidity41
Wind Speed2.62 m/h
Sun Rise05:31:54
Sun Set18:39:11
Current Time: 21-Apr-2019 06:14:55
Lat/Lon: 31.9, 73.27




Pindi Bhattian's Geo Location



Pindi Bhattian's Weather Forecast

Time Overall Temp Min Temp Max Temp Humidity Wind Speed Rain
21-Apr-2019 (Sun)
08:00:00 scattered clouds 28.660 28.659 28.660 34 2.41 m/h 0 %
11:00:00 scattered clouds 35.050 35.050 35.050 22 1.08 m/h 0 %
14:00:00 clear sky 37.050 37.050 37.050 19 1.34 m/h 0 %
17:00:00 clear sky 36.150 36.150 36.150 18 2.04 m/h 0 %
20:00:00 clear sky 30.850 30.850 30.850 28 2.66 m/h 0 %
23:00:00 clear sky 28.650 28.650 28.650 33 2.35 m/h 0 %
22-Apr-2019 (Mon)
02:00:00 clear sky 26.970 26.970 26.970 36 2.63 m/h 0 %
05:00:00 clear sky 25.604 25.604 25.604 36 2.66 m/h 0 %
08:00:00 clear sky 29.866 29.866 29.866 29 2.35 m/h 0 %
11:00:00 clear sky 36.620 36.620 36.620 19 0.82 m/h 0 %
14:00:00 clear sky 38.315 38.315 38.315 16 2.55 m/h 0 %
17:00:00 clear sky 38.331 38.331 38.331 15 2.59 m/h 0 %
20:00:00 clear sky 32.250 32.250 32.250 24 2.44 m/h 0 %
23:00:00 clear sky 29.396 29.396 29.396 29 2.57 m/h 0 %
23-Apr-2019 (Tue)
02:00:00 clear sky 28.077 28.077 28.077 31 3.09 m/h 0 %
05:00:00 clear sky 26.546 26.546 26.546 33 2.27 m/h 0 %
08:00:00 scattered clouds 31.097 31.097 31.097 26 0.8 m/h 0 %
11:00:00 broken clouds 38.550 38.550 38.550 16 0.86 m/h 0 %
14:00:00 clear sky 40.450 40.450 40.450 13 2.51 m/h 0 %
17:00:00 clear sky 40.150 40.150 40.150 12 1.75 m/h 0 %
20:00:00 clear sky 33.428 33.428 33.428 20 3.77 m/h 0 %
23:00:00 clear sky 30.750 30.750 30.750 22 3.29 m/h 0 %
24-Apr-2019 (Wed)
02:00:00 overcast clouds 29.682 29.682 29.682 23 3.36 m/h 0 %
05:00:00 light rain 26.814 26.814 26.814 31 3.04 m/h 69 %
08:00:00 overcast clouds 31.450 31.450 31.450 21 4.95 m/h 0 %
11:00:00 broken clouds 40.009 40.009 40.009 12 3.97 m/h 0 %
14:00:00 few clouds 43.350 43.350 43.350 8 6.6 m/h 0 %
17:00:00 scattered clouds 41.150 41.150 41.150 9 6.45 m/h 0 %
20:00:00 overcast clouds 31.755 31.755 31.755 27 6.97 m/h 0 %
23:00:00 overcast clouds 29.845 29.845 29.845 34 8.26 m/h 0 %
25-Apr-2019 (Thu)
02:00:00 overcast clouds 29.550 29.550 29.550 30 4.56 m/h 0 %
05:00:00 overcast clouds 29.212 29.212 29.212 31 4.25 m/h 0 %
08:00:00 overcast clouds 30.820 30.820 30.820 31 1.06 m/h 0 %
11:00:00 broken clouds 37.890 37.890 37.890 19 1.35 m/h 0 %
14:00:00 clear sky 39.450 39.450 39.450 14 3.16 m/h 0 %
17:00:00 clear sky 39.211 39.211 39.211 13 2.6 m/h 0 %
20:00:00 scattered clouds 33.125 33.125 33.125 19 1.54 m/h 0 %
23:00:00 broken clouds 30.343 30.343 30.343 23 2.3 m/h 0 %
26-Apr-2019 (Fri)
02:00:00 overcast clouds 28.832 28.832 28.832 22 2.28 m/h 0 %
05:00:00 broken clouds 26.726 26.726 26.726 21 3.21 m/h 0 %

Famous Cities (60)